createdAt,value
2018-04-16T00:00:00.554Z,85.98
2018-04-16T00:05:01.521Z,87.61
2018-04-16T00:10:02.483Z,86.23
2018-04-16T00:15:03.466Z,88.00
2018-04-16T00:20:04.450Z,87.72
2018-04-16T00:25:05.425Z,87.38
2018-04-16T00:30:06.392Z,86.79
2018-04-16T00:35:13.347Z,86.37
2018-04-16T00:40:20.421Z,86.75
2018-04-16T00:45:27.368Z,86.11
2018-04-16T00:50:34.556Z,85.22
2018-04-16T00:55:41.614Z,84.95
2018-04-16T01:00:48.649Z,85.36
2018-04-16T01:05:55.726Z,85.35
2018-04-16T01:11:02.803Z,84.24
2018-04-16T01:21:43.753Z,83.96
2018-04-16T01:26:50.815Z,83.42
2018-04-16T01:31:57.904Z,83.45
2018-04-16T01:37:05.020Z,83.17
2018-04-16T01:42:12.100Z,82.64
2018-04-16T01:47:19.221Z,82.26
2018-04-16T01:52:26.175Z,81.79
2018-04-16T01:57:33.156Z,81.72
2018-04-16T02:02:40.182Z,83.32
2018-04-16T02:07:47.291Z,81.81
2018-04-16T02:12:54.387Z,81.07
2018-04-16T02:18:01.504Z,81.72
2018-04-16T02:23:08.584Z,81.68
2018-04-16T02:28:15.779Z,81.32
2018-04-16T02:33:22.855Z,81.64
2018-04-16T02:38:29.929Z,81.37
2018-04-16T02:43:37.052Z,80.90
2018-04-16T02:48:44.100Z,81.20
2018-04-16T02:53:51.052Z,82.07
2018-04-16T02:58:58.070Z,80.72
2018-04-16T03:04:05.096Z,80.66
2018-04-16T03:14:49.367Z,80.28
2018-04-16T03:19:56.449Z,80.82
2018-04-16T03:30:39.527Z,84.06
2018-04-16T03:35:46.499Z,83.46
2018-04-16T03:40:53.503Z,84.76
2018-04-16T03:46:00.646Z,83.27
2018-04-16T03:51:04.509Z,81.31
2018-04-16T03:56:05.509Z,80.93
2018-04-16T04:01:06.470Z,81.54
2018-04-16T04:06:07.427Z,80.70
2018-04-16T04:11:08.391Z,80.69
2018-04-16T04:16:09.378Z,81.31
2018-04-16T04:21:10.330Z,82.61
2018-04-16T04:26:23.622Z,83.28
2018-04-16T04:31:24.604Z,80.55
2018-04-16T04:36:25.556Z,80.36
2018-04-16T04:41:26.525Z,81.33
2018-04-16T04:46:27.495Z,81.00
2018-04-16T04:51:28.436Z,84.79
2018-04-16T04:56:29.391Z,82.01
2018-04-16T05:01:30.342Z,80.71
2018-04-16T05:06:31.329Z,81.55
2018-04-16T05:11:32.281Z,81.40
2018-04-16T05:16:33.234Z,81.32
2018-04-16T05:21:34.195Z,81.01
2018-04-16T05:26:35.180Z,79.08
2018-04-16T05:31:36.159Z,80.59
2018-04-16T05:36:37.113Z,80.29
2018-04-16T05:41:38.080Z,80.30
2018-04-16T05:46:39.076Z,80.75
2018-04-16T05:51:40.039Z,80.77
2018-04-16T05:56:40.999Z,82.45
2018-04-16T06:01:41.955Z,84.55
2018-04-16T06:06:42.923Z,81.95
2018-04-16T06:11:43.908Z,81.48
2018-04-16T06:16:44.884Z,85.95
2018-04-16T06:21:45.848Z,82.53
2018-04-16T06:26:46.912Z,81.65
2018-04-16T06:31:47.917Z,81.41
2018-04-16T06:36:48.895Z,81.85
2018-04-16T06:41:49.875Z,81.40
2018-04-16T06:46:50.847Z,81.91
2018-04-16T06:51:51.795Z,81.72
2018-04-16T06:56:52.773Z,83.27
2018-04-16T07:01:53.775Z,83.52
2018-04-16T07:06:54.759Z,81.35
2018-04-16T07:11:55.728Z,80.68
2018-04-16T07:16:56.713Z,81.18
2018-04-16T07:21:57.669Z,82.71
2018-04-16T07:26:58.633Z,81.42
2018-04-16T07:31:59.627Z,80.94
2018-04-16T07:37:00.584Z,81.20
2018-04-16T07:42:01.540Z,80.91
2018-04-16T07:47:02.536Z,80.23
2018-04-16T07:52:03.494Z,80.18
2018-04-16T07:57:04.455Z,80.44
2018-04-16T08:02:05.441Z,80.00
2018-04-16T08:07:06.440Z,80.11
2018-04-16T08:12:07.417Z,80.28
2018-04-16T08:17:08.359Z,79.22
2018-04-16T08:22:09.365Z,78.33
2018-04-16T08:27:10.329Z,78.26
2018-04-16T08:32:11.321Z,77.65
2018-04-16T08:37:12.279Z,77.69
2018-04-16T08:42:13.256Z,78.32
2018-04-16T08:47:14.264Z,77.65
2018-04-16T08:52:15.232Z,78.29
2018-04-16T08:57:16.204Z,78.82
2018-04-16T09:02:17.177Z,77.04
2018-04-16T09:07:18.123Z,77.30
2018-04-16T09:12:19.095Z,76.86
2018-04-16T09:17:20.101Z,76.06
2018-04-16T09:22:21.039Z,75.96
2018-04-16T09:27:21.971Z,75.36
2018-04-16T09:32:22.946Z,74.99
2018-04-16T09:37:23.921Z,75.57
2018-04-16T09:42:24.894Z,73.54
2018-04-16T09:47:25.876Z,75.66
2018-04-16T09:52:26.842Z,75.10
2018-04-16T09:57:27.795Z,72.37
2018-04-16T10:02:28.786Z,72.74
2018-04-16T10:07:29.731Z,72.15
2018-04-16T10:12:30.704Z,74.24
2018-04-16T10:17:31.648Z,71.24
2018-04-16T10:22:32.600Z,69.75
2018-04-16T10:27:33.555Z,69.52
2018-04-16T10:32:34.552Z,68.84
2018-04-16T10:37:35.504Z,68.88
2018-04-16T10:42:36.492Z,69.37
2018-04-16T10:47:37.480Z,67.51
2018-04-16T10:52:38.458Z,65.43
2018-04-16T10:57:39.436Z,66.79
2018-04-16T11:02:40.411Z,66.84
2018-04-16T11:07:41.387Z,65.94
2018-04-16T11:12:42.389Z,66.11
2018-04-16T11:17:43.357Z,64.54
2018-04-16T11:22:44.331Z,62.77
2018-04-16T11:27:45.316Z,61.03
2018-04-16T11:32:46.293Z,61.18
2018-04-16T11:37:47.270Z,59.76
2018-04-16T11:42:48.245Z,57.98
2018-04-16T11:47:49.255Z,59.91
2018-04-16T11:52:50.207Z,55.41
2018-04-16T11:57:51.185Z,55.47
2018-04-16T12:02:52.190Z,54.80
2018-04-16T12:07:53.156Z,59.44
2018-04-16T12:12:54.090Z,60.63
2018-04-16T12:17:55.059Z,57.82
2018-04-16T12:23:08.456Z,56.59
2018-04-16T12:28:21.603Z,59.79
2018-04-16T12:33:22.568Z,58.74
2018-04-16T12:38:23.591Z,58.76
2018-04-16T12:43:24.570Z,57.69
2018-04-16T12:48:37.853Z,56.17
2018-04-16T12:53:38.833Z,55.41
2018-04-16T12:58:39.774Z,51.82
2018-04-16T13:03:40.729Z,52.77
2018-04-16T13:08:41.721Z,50.39
2018-04-16T13:13:42.722Z,49.72
2018-04-16T13:18:43.734Z,49.62
2018-04-16T13:23:50.747Z,51.24
2018-04-16T13:28:57.735Z,48.74
2018-04-16T13:34:04.863Z,45.47
2018-04-16T13:39:05.875Z,48.30
2018-04-16T13:44:06.822Z,45.93
2018-04-16T13:49:07.845Z,44.74
2018-04-16T13:54:08.824Z,47.81
2018-04-16T13:59:15.905Z,54.32
2018-04-16T14:04:22.988Z,55.67
2018-04-16T14:09:36.292Z,56.39
2018-04-16T14:14:49.434Z,57.71
2018-04-16T14:19:50.426Z,59.48
2018-04-16T14:24:51.392Z,60.46
2018-04-16T14:29:58.335Z,61.31
2018-04-16T14:34:59.334Z,66.22
2018-04-16T14:40:00.335Z,72.62
2018-04-16T14:45:01.325Z,75.49
2018-04-16T14:50:09.077Z,75.93
2018-04-16T14:55:22.169Z,77.58
2018-04-16T15:00:23.139Z,77.68
2018-04-16T15:05:24.148Z,78.65
2018-04-16T15:10:25.131Z,78.00
2018-04-16T15:15:32.288Z,77.93
2018-04-16T15:20:33.273Z,80.42
2018-04-16T15:25:34.270Z,79.35
2018-04-16T15:30:35.241Z,78.91
2018-04-16T15:35:36.254Z,79.41
2018-04-16T15:40:37.253Z,78.23
2018-04-16T15:45:38.235Z,79.35
2018-04-16T15:50:39.270Z,79.01
2018-04-16T15:55:40.232Z,78.62
2018-04-16T16:00:41.252Z,79.78
2018-04-16T16:05:42.297Z,79.70
2018-04-16T16:10:43.296Z,78.55
2018-04-16T16:15:44.280Z,78.07
2018-04-16T16:20:45.265Z,79.54
2018-04-16T16:25:46.244Z,81.17
2018-04-16T16:30:47.232Z,80.64
2018-04-16T16:35:48.273Z,79.93
2018-04-16T16:40:49.276Z,80.33
2018-04-16T16:45:50.292Z,80.10
2018-04-16T16:50:51.327Z,80.16
2018-04-16T16:55:52.292Z,80.29
2018-04-16T17:00:53.280Z,79.44
2018-04-16T17:05:54.275Z,81.95
2018-04-16T17:10:55.310Z,79.99
2018-04-16T17:15:56.312Z,80.34
2018-04-16T17:20:57.317Z,79.51
2018-04-16T17:25:58.334Z,78.91
2018-04-16T17:30:59.324Z,78.21
2018-04-16T17:36:00.332Z,77.59
2018-04-16T17:41:01.372Z,77.71
2018-04-16T17:46:02.371Z,74.49
2018-04-16T17:51:03.411Z,75.85
2018-04-16T17:56:04.404Z,74.69
2018-04-16T18:01:05.423Z,75.17
2018-04-16T18:06:06.416Z,75.42
2018-04-16T18:11:07.398Z,75.45
2018-04-16T18:16:08.464Z,76.01
2018-04-16T18:21:09.511Z,74.36
2018-04-16T18:26:10.536Z,74.76
2018-04-16T18:31:11.538Z,74.92
2018-04-16T18:36:12.582Z,74.67
2018-04-16T18:41:13.637Z,75.25
2018-04-16T18:46:14.642Z,75.02
2018-04-16T18:51:15.688Z,74.37
2018-04-16T18:56:16.707Z,73.86
2018-04-16T19:01:17.861Z,73.79
2018-04-16T19:06:18.843Z,73.56
2018-04-16T19:11:19.890Z,73.28
2018-04-16T19:16:20.876Z,73.14
2018-04-16T19:21:28.113Z,73.29
2018-04-16T19:26:29.173Z,74.14
2018-04-16T19:31:30.323Z,73.26
2018-04-16T19:36:31.280Z,73.86
2018-04-16T19:41:38.298Z,74.42
2018-04-16T19:46:39.294Z,73.28
2018-04-16T19:51:40.345Z,74.28
2018-04-16T19:56:47.402Z,72.44
2018-04-16T20:01:54.461Z,72.44
2018-04-16T20:06:55.491Z,72.00
2018-04-16T20:11:56.504Z,72.70
2018-04-16T20:16:57.546Z,72.53
2018-04-16T20:21:58.575Z,72.29
2018-04-16T20:26:59.572Z,72.88
2018-04-16T20:32:00.572Z,73.64
2018-04-16T20:37:01.559Z,74.33
2018-04-16T20:42:02.552Z,74.22
2018-04-16T20:47:03.583Z,73.75
2018-04-16T20:52:04.653Z,74.11
2018-04-16T20:57:05.654Z,73.08
2018-04-16T21:02:06.616Z,72.49
2018-04-16T21:07:07.921Z,72.55
2018-04-16T21:12:08.918Z,73.01
2018-04-16T21:17:09.904Z,73.34
2018-04-16T21:22:10.915Z,73.95
2018-04-16T21:27:11.894Z,74.30
2018-04-16T21:32:12.888Z,74.53
2018-04-16T21:37:13.854Z,75.55
2018-04-16T21:42:14.844Z,75.18
2018-04-16T21:47:15.832Z,75.40
2018-04-16T21:52:16.803Z,74.41
2018-04-16T21:57:17.790Z,73.79
2018-04-16T22:02:18.753Z,73.87
2018-04-16T22:07:19.732Z,73.56
2018-04-16T22:12:20.686Z,75.67
2018-04-16T22:17:21.627Z,74.28
2018-04-16T22:22:22.598Z,75.18
2018-04-16T22:27:23.813Z,74.20
2018-04-16T22:32:24.805Z,76.16
2018-04-16T22:37:25.803Z,74.39
2018-04-16T22:42:26.774Z,75.33
2018-04-16T22:47:27.751Z,77.15
2018-04-16T22:52:28.728Z,76.00
2018-04-16T22:57:29.695Z,76.18
2018-04-16T23:02:30.636Z,76.86
2018-04-16T23:07:31.593Z,77.42
2018-04-16T23:12:32.557Z,76.12
2018-04-16T23:17:33.548Z,75.80
2018-04-16T23:22:34.505Z,74.71
2018-04-16T23:27:35.436Z,74.67
2018-04-16T23:32:36.416Z,74.25
2018-04-16T23:37:37.377Z,75.44
2018-04-16T23:42:38.329Z,76.90
2018-04-16T23:47:39.318Z,76.43
2018-04-16T23:52:40.324Z,75.55
2018-04-16T23:57:41.274Z,76.27
